Time;durP1;ratioP1;P1;durP2;ratioP2;P2;SDS_P1;SDS_P2;PMS_P1;PMS_P2;Temp;Humidity;BMP_temperature;BMP_pressure;BME280_temperature;BME280_humidity;BME280_pressure;Samples;Min_cycle;Max_cycle;Signal;HPM_P1;HPM_P2
2023/07/20 00:02:45;;;;;;;4.07;3.10;;;;;;;;;;6292893;28;20583;-80
2023/07/20 00:05:47;;;;;;;7.55;3.55;;;;;;;;;;6275901;28;20067;-81
2023/07/20 00:08:48;;;;;;;5.30;3.15;;;;;;;;;;6263300;28;20137;-80
2023/07/20 00:11:51;;;;;;;4.80;3.30;;;;;;;;;;6283581;28;20123;-81
2023/07/20 00:14:53;;;;;;;6.85;3.45;;;;;;;;;;6295487;28;20048;-81
2023/07/20 00:17:55;;;;;;;4.20;3.17;;;;;;;;;;6298741;28;20550;-81
2023/07/20 00:20:57;;;;;;;6.15;2.92;;;;;;;;;;6301026;28;20052;-81
2023/07/20 00:23:58;;;;;;;5.47;3.47;;;;;;;;;;6297088;28;22089;-82
2023/07/20 00:27:00;;;;;;;5.00;3.58;;;;;;;;;;6299856;28;20044;-81
2023/07/20 00:30:05;;;;;;;6.60;3.38;;;;;;;;;;6282727;28;20135;-81
2023/07/20 00:33:10;;;;;;;5.00;3.57;;;;;;;;;;6280749;28;20048;-81
2023/07/20 00:36:12;;;;;;;5.70;3.45;;;;;;;;;;6283494;28;21350;-81
2023/07/20 00:39:16;;;;;;;5.97;3.33;;;;;;;;;;6264189;28;20037;-81
2023/07/20 00:42:18;;;;;;;4.15;3.22;;;;;;;;;;6266391;28;20039;-80
2023/07/20 00:45:20;;;;;;;5.43;3.55;;;;;;;;;;6280940;28;20071;-79
2023/07/20 00:48:21;;;;;;;5.85;3.30;;;;;;;;;;6294172;28;20583;-81
2023/07/20 00:51:25;;;;;;;6.43;3.53;;;;;;;;;;6277433;28;20068;-80
2023/07/20 00:54:27;;;;;;;5.55;3.25;;;;;;;;;;6265003;28;20051;-82
2023/07/20 00:57:29;;;;;;;4.75;3.33;;;;;;;;;;6293282;28;20055;-78
2023/07/20 01:00:31;;;;;;;4.93;3.40;;;;;;;;;;6269965;28;20055;-80
2023/07/20 01:03:33;;;;;;;6.07;3.13;;;;;;;;;;6281056;28;20140;-80
2023/07/20 01:06:46;;;;;;;7.68;3.25;;;;;;;;;;6282369;28;20127;-79
2023/07/20 01:10:05;;;;;;;5.57;3.42;;;;;;;;;;6300687;28;20120;-82
2023/07/20 01:13:10;;;;;;;4.07;2.90;;;;;;;;;;6302827;28;20597;-82
2023/07/20 01:16:12;;;;;;;5.75;3.15;;;;;;;;;;6272678;28;20048;-80
2023/07/20 01:19:14;;;;;;;4.53;3.60;;;;;;;;;;6297530;28;20410;-84
2023/07/20 01:22:19;;;;;;;5.40;3.22;;;;;;;;;;6300793;28;20044;-82
2023/07/20 01:25:24;;;;;;;4.95;3.50;;;;;;;;;;6305152;28;20048;-80
2023/07/20 01:28:55;;;;;;;5.43;4.00;;;;;;;;;;6319948;28;20040;-79
2023/07/20 01:31:57;;;;;;;8.00;3.75;;;;;;;;;;6277974;28;20060;-82
2023/07/20 01:35:00;;;;;;;5.50;3.60;;;;;;;;;;6298403;28;20412;-81
2023/07/20 01:38:02;;;;;;;4.75;3.40;;;;;;;;;;6294656;28;20602;-81
2023/07/20 01:41:05;;;;;;;7.28;3.58;;;;;;;;;;6278700;28;20571;-82
2023/07/20 01:44:06;;;;;;;6.25;3.95;;;;;;;;;;6277622;28;20498;-81
2023/07/20 01:47:08;;;;;;;6.50;3.70;;;;;;;;;;6275143;28;20529;-82
2023/07/20 01:50:10;;;;;;;5.28;3.50;;;;;;;;;;6278671;28;20044;-81
2023/07/20 01:53:12;;;;;;;5.85;3.33;;;;;;;;;;6295856;28;20177;-83
2023/07/20 01:56:13;;;;;;;5.78;3.80;;;;;;;;;;6275831;28;20125;-83
2023/07/20 01:59:15;;;;;;;4.57;3.00;;;;;;;;;;6273340;28;20048;-82
2023/07/20 02:02:18;;;;;;;5.10;3.22;;;;;;;;;;6290629;28;20037;-81
2023/07/20 02:05:19;;;;;;;5.80;3.40;;;;;;;;;;6285018;28;20067;-81
2023/07/20 02:08:23;;;;;;;3.63;3.30;;;;;;;;;;6299633;28;20099;-80
2023/07/20 02:11:24;;;;;;;4.32;3.17;;;;;;;;;;6289885;28;20106;-81
2023/07/20 02:14:26;;;;;;;5.18;3.42;;;;;;;;;;6300530;28;20055;-81
2023/07/20 02:17:27;;;;;;;6.68;3.80;;;;;;;;;;6327252;28;20052;-81
2023/07/20 02:20:30;;;;;;;;;;;;;;;;;;6313773;28;20055;-81
2023/07/20 02:23:32;;;;;;;4.97;3.50;;;;;;;;;;6302326;28;19923;-81
2023/07/20 02:26:34;;;;;;;7.00;3.38;;;;;;;;;;6287727;28;20040;-80
2023/07/20 02:29:36;;;;;;;5.47;3.28;;;;;;;;;;6289032;28;20054;-81
2023/07/20 02:32:38;;;;;;;4.80;3.45;;;;;;;;;;6300395;28;20512;-81
2023/07/20 02:35:40;;;;;;;6.80;3.70;;;;;;;;;;6281485;28;20143;-80
2023/07/20 02:38:42;;;;;;;5.37;3.30;;;;;;;;;;6281479;28;20044;-81
2023/07/20 02:41:44;;;;;;;5.70;3.22;;;;;;;;;;6279013;28;20040;-81
2023/07/20 02:44:46;;;;;;;9.88;3.90;;;;;;;;;;6274200;28;20032;-81
2023/07/20 02:47:47;;;;;;;6.30;4.10;;;;;;;;;;6297223;28;20036;-81
2023/07/20 02:50:49;;;;;;;8.95;4.05;;;;;;;;;;6268863;28;20040;-81
2023/07/20 02:53:51;;;;;;;8.75;5.40;;;;;;;;;;6285227;28;20039;-81
2023/07/20 02:56:52;;;;;;;9.48;5.30;;;;;;;;;;6288460;28;20522;-80
2023/07/20 02:59:55;;;;;;;7.65;4.97;;;;;;;;;;6263191;28;20048;-82
2023/07/20 03:02:56;;;;;;;8.32;5.18;;;;;;;;;;6290336;28;20368;-80
2023/07/20 03:05:59;;;;;;;9.23;5.05;;;;;;;;;;6272347;28;20421;-80
2023/07/20 03:09:00;;;;;;;9.68;5.50;;;;;;;;;;6294535;28;20048;-80
2023/07/20 03:12:04;;;;;;;8.93;5.40;;;;;;;;;;6296092;28;20135;-80
2023/07/20 03:15:06;;;;;;;10.48;4.72;;;;;;;;;;6299059;28;20043;-80
2023/07/20 03:18:08;;;;;;;7.70;4.37;;;;;;;;;;6264806;28;20047;-80
2023/07/20 03:21:11;;;;;;;5.60;3.65;;;;;;;;;;6301835;28;20536;-80
2023/07/20 03:24:13;;;;;;;5.25;3.47;;;;;;;;;;6278985;28;20128;-80
2023/07/20 03:27:15;;;;;;;5.18;3.53;;;;;;;;;;6286148;28;20094;-80
2023/07/20 03:30:16;;;;;;;5.85;3.33;;;;;;;;;;6285186;28;20048;-82
2023/07/20 03:33:18;;;;;;;7.13;3.28;;;;;;;;;;6297215;28;20040;-81
2023/07/20 03:36:20;;;;;;;4.30;2.88;;;;;;;;;;6302444;28;20044;-81
2023/07/20 03:39:22;;;;;;;7.37;3.53;;;;;;;;;;6282169;28;20133;-81
2023/07/20 03:42:24;;;;;;;5.07;3.20;;;;;;;;;;6299129;28;20443;-81
2023/07/20 03:45:26;;;;;;;5.40;3.47;;;;;;;;;;6287218;28;20643;-82
2023/07/20 03:48:28;;;;;;;4.97;3.33;;;;;;;;;;6299614;28;20522;-81
2023/07/20 03:51:30;;;;;;;6.13;3.37;;;;;;;;;;6287794;28;20076;-82
2023/07/20 03:54:32;;;;;;;5.75;3.58;;;;;;;;;;6268259;28;20443;-80
2023/07/20 03:57:34;;;;;;;6.55;3.53;;;;;;;;;;6287299;28;20494;-80
2023/07/20 04:00:35;;;;;;;6.75;4.28;;;;;;;;;;6298899;28;20406;-81
2023/07/20 04:03:37;;;;;;;7.35;5.40;;;;;;;;;;6300522;28;20472;-81
2023/07/20 04:06:39;;;;;;;6.43;4.07;;;;;;;;;;6301955;28;20138;-81
2023/07/20 04:09:40;;;;;;;5.05;3.28;;;;;;;;;;6301177;28;20044;-81
2023/07/20 04:12:43;;;;;;;6.50;3.15;;;;;;;;;;6298038;28;20048;-80
2023/07/20 04:15:45;;;;;;;5.90;3.53;;;;;;;;;;6281878;28;20051;-83
2023/07/20 04:18:47;;;;;;;6.18;3.40;;;;;;;;;;6287335;28;20056;-83
2023/07/20 04:21:48;;;;;;;8.30;3.90;;;;;;;;;;6303297;28;20044;-81
2023/07/20 04:24:50;;;;;;;5.50;3.92;;;;;;;;;;6271526;28;20523;-81
2023/07/20 04:27:53;;;;;;;7.60;4.28;;;;;;;;;;6286473;28;20082;-82
2023/07/20 04:30:55;;;;;;;;;;;;;;;;;;6280704;28;20033;-83
2023/07/20 04:33:56;;;;;;;7.70;3.60;;;;;;;;;;6300503;28;20355;-82
2023/07/20 04:36:58;;;;;;;8.73;4.07;;;;;;;;;;6282440;28;20032;-82
2023/07/20 04:40:03;;;;;;;7.40;3.60;;;;;;;;;;6278003;28;20127;-81
2023/07/20 04:43:05;;;;;;;4.85;3.42;;;;;;;;;;6289616;28;20101;-81
2023/07/20 04:46:07;;;;;;;6.85;4.20;;;;;;;;;;6278702;28;20040;-81
2023/07/20 04:49:12;;;;;;;;;;;;;;;;;;6269765;28;20044;-82
2023/07/20 04:52:16;;;;;;;7.03;4.13;;;;;;;;;;6297152;28;19920;-83
2023/07/20 04:55:18;;;;;;;7.90;4.22;;;;;;;;;;6303637;28;20060;-79
2023/07/20 04:58:22;;;;;;;6.82;4.13;;;;;;;;;;6284419;28;20413;-81
2023/07/20 05:01:24;;;;;;;8.38;4.72;;;;;;;;;;6284308;28;20418;-80
2023/07/20 05:04:26;;;;;;;10.10;5.23;;;;;;;;;;6280811;28;20129;-82
2023/07/20 05:07:39;;;;;;;11.60;5.47;;;;;;;;;;6281917;28;20536;-81
2023/07/20 05:10:41;;;;;;;9.02;4.93;;;;;;;;;;6299428;28;20132;-81
2023/07/20 05:13:43;;;;;;;8.98;4.35;;;;;;;;;;6275595;28;20037;-81
2023/07/20 05:16:45;;;;;;;7.00;4.28;;;;;;;;;;6287962;28;20052;-81
2023/07/20 05:19:47;;;;;;;8.80;4.20;;;;;;;;;;6301125;28;20044;-81
2023/07/20 05:22:50;;;;;;;6.82;4.35;;;;;;;;;;6268102;28;20070;-81
2023/07/20 05:25:56;;;;;;;7.97;4.75;;;;;;;;;;6285084;28;20048;-81
2023/07/20 05:28:57;;;;;;;7.35;4.78;;;;;;;;;;6282332;28;20040;-81
2023/07/20 05:31:59;;;;;;;7.82;4.65;;;;;;;;;;6284931;28;20130;-82
2023/07/20 05:35:01;;;;;;;9.63;5.20;;;;;;;;;;6298361;28;20413;-81
2023/07/20 05:38:05;;;;;;;6.72;5.15;;;;;;;;;;6303451;28;20044;-81
2023/07/20 05:41:10;;;;;;;10.80;4.80;;;;;;;;;;6273017;28;20071;-81
2023/07/20 05:44:12;;;;;;;8.02;5.45;;;;;;;;;;6272610;28;20660;-81
2023/07/20 05:47:14;;;;;;;8.73;5.57;;;;;;;;;;6303799;28;20047;-81
2023/07/20 05:50:15;;;;;;;10.10;5.78;;;;;;;;;;6307247;28;20159;-81
2023/07/20 05:53:17;;;;;;;12.48;6.53;;;;;;;;;;6290981;28;20505;-81
2023/07/20 05:56:18;;;;;;;10.48;7.00;;;;;;;;;;6295925;28;20103;-81
2023/07/20 05:59:20;;;;;;;11.77;6.90;;;;;;;;;;6304360;28;20044;-81
2023/07/20 06:02:22;;;;;;;12.60;7.80;;;;;;;;;;6283358;28;20055;-80
2023/07/20 06:05:24;;;;;;;10.88;7.28;;;;;;;;;;6305547;28;20044;-81
2023/07/20 06:08:30;;;;;;;11.32;7.55;;;;;;;;;;6282432;28;20127;-82
2023/07/20 06:11:32;;;;;;;12.05;7.93;;;;;;;;;;6304739;28;20048;-81
2023/07/20 06:14:34;;;;;;;12.77;8.05;;;;;;;;;;6300523;28;20071;-80
2023/07/20 06:17:37;;;;;;;11.40;7.10;;;;;;;;;;6282377;28;20616;-81
2023/07/20 06:20:41;;;;;;;14.32;8.40;;;;;;;;;;6306885;28;20048;-80
2023/07/20 06:23:42;;;;;;;10.73;8.15;;;;;;;;;;6286734;28;20051;-81
2023/07/20 06:26:44;;;;;;;12.80;8.25;;;;;;;;;;6272239;28;20090;-80
2023/07/20 06:29:46;;;;;;;11.13;7.82;;;;;;;;;;6278262;28;20055;-80
2023/07/20 06:32:48;;;;;;;12.88;8.98;;;;;;;;;;6282344;28;20471;-80
2023/07/20 06:35:50;;;;;;;16.63;10.02;;;;;;;;;;6286581;28;20032;-81
2023/07/20 06:38:52;;;;;;;19.27;10.00;;;;;;;;;;6294489;28;20051;-79
2023/07/20 06:41:56;;;;;;;15.95;10.45;;;;;;;;;;6299947;28;20506;-80
2023/07/20 06:44:58;;;;;;;22.13;11.15;;;;;;;;;;6298701;28;20185;-81
2023/07/20 06:47:59;;;;;;;14.60;10.38;;;;;;;;;;6301761;28;20048;-81
2023/07/20 06:51:02;;;;;;;15.02;10.05;;;;;;;;;;6302766;28;20112;-80
2023/07/20 06:54:04;;;;;;;16.05;10.32;;;;;;;;;;6282345;28;20052;-80
2023/07/20 06:57:06;;;;;;;14.20;9.77;;;;;;;;;;6297712;28;20044;-80
2023/07/20 07:00:12;;;;;;;15.90;10.38;;;;;;;;;;6280810;28;20141;-79
2023/07/20 07:03:13;;;;;;;17.17;10.48;;;;;;;;;;6288657;28;20040;-80
2023/07/20 07:06:15;;;;;;;14.35;9.48;;;;;;;;;;6288540;28;20063;-81
2023/07/20 07:09:18;;;;;;;15.48;10.57;;;;;;;;;;6288625;28;20040;-79
2023/07/20 07:12:19;;;;;;;17.10;10.10;;;;;;;;;;6264296;28;20520;-82
2023/07/20 07:15:21;;;;;;;14.38;9.90;;;;;;;;;;6292373;28;20058;-78
2023/07/20 07:18:24;;;;;;;18.70;10.25;;;;;;;;;;6305132;28;20762;-81
2023/07/20 07:21:26;;;;;;;14.32;9.20;;;;;;;;;;6289591;28;20043;-78
2023/07/20 07:24:33;;;;;;;13.80;10.02;;;;;;;;;;6303891;28;20583;-78
2023/07/20 07:27:35;;;;;;;11.68;9.10;;;;;;;;;;6281706;28;20389;-79
2023/07/20 07:30:37;;;;;;;12.07;8.47;;;;;;;;;;6302137;28;20048;-79
2023/07/20 07:33:39;;;;;;;10.80;7.85;;;;;;;;;;6303390;28;20728;-81
2023/07/20 07:36:40;;;;;;;10.35;7.80;;;;;;;;;;6306551;28;20495;-81
2023/07/20 07:39:42;;;;;;;10.27;7.50;;;;;;;;;;6303203;28;20068;-82
2023/07/20 07:42:44;;;;;;;9.52;7.25;;;;;;;;;;6295878;28;20520;-81
2023/07/20 07:45:46;;;;;;;11.67;7.17;;;;;;;;;;6285266;28;20101;-81
2023/07/20 07:48:47;;;;;;;12.18;7.65;;;;;;;;;;6289016;28;20101;-80
2023/07/20 07:51:49;;;;;;;8.18;6.80;;;;;;;;;;6303011;28;20421;-83
2023/07/20 07:54:51;;;;;;;8.55;6.05;;;;;;;;;;6287278;28;20136;-79
2023/07/20 07:57:52;;;;;;;7.57;5.88;;;;;;;;;;6299143;28;20040;-83
2023/07/20 08:00:54;;;;;;;6.93;5.18;;;;;;;;;;6306324;28;20055;-80
2023/07/20 08:03:56;;;;;;;5.57;5.07;;;;;;;;;;6300005;28;20131;-81
2023/07/20 08:06:59;;;;;;;8.68;5.00;;;;;;;;;;6303270;28;20410;-83
2023/07/20 08:10:01;;;;;;;5.45;4.40;;;;;;;;;;6284365;28;20041;-81
2023/07/20 08:13:03;;;;;;;6.30;4.72;;;;;;;;;;6282741;28;20177;-80
2023/07/20 08:16:05;;;;;;;7.97;5.53;;;;;;;;;;6284878;28;20044;-80
2023/07/20 08:19:06;;;;;;;6.85;4.63;;;;;;;;;;6303921;28;20044;-82
2023/07/20 08:22:08;;;;;;;6.68;4.10;;;;;;;;;;6288826;28;20044;-82
2023/07/20 08:25:10;;;;;;;4.57;3.85;;;;;;;;;;6282656;28;20056;-78
2023/07/20 08:28:16;;;;;;;4.72;4.20;;;;;;;;;;6314885;28;20048;-78
2023/07/20 08:31:18;;;;;;;4.35;3.78;;;;;;;;;;6305846;28;20052;-79
2023/07/20 08:34:20;;;;;;;4.43;4.03;;;;;;;;;;6301344;28;20609;-80
2023/07/20 08:37:32;;;;;;;4.70;3.45;;;;;;;;;;6300291;28;20048;-82
2023/07/20 08:40:40;;;;;;;5.40;3.58;;;;;;;;;;6295410;28;20128;-80
2023/07/20 08:43:43;;;;;;;3.50;3.20;;;;;;;;;;6300198;28;20044;-80
2023/07/20 08:46:47;;;;;;;4.35;3.10;;;;;;;;;;6301040;28;20065;-81
2023/07/20 08:49:49;;;;;;;3.40;3.10;;;;;;;;;;6279542;28;20544;-81
2023/07/20 08:52:52;;;;;;;5.20;3.70;;;;;;;;;;6289661;28;20050;-80
2023/07/20 08:55:54;;;;;;;5.30;3.40;;;;;;;;;;6295634;28;20059;-80
2023/07/20 08:58:56;;;;;;;3.28;3.00;;;;;;;;;;6271339;28;20390;-82
2023/07/20 09:01:59;;;;;;;4.00;3.17;;;;;;;;;;6286902;28;20071;-80
2023/07/20 09:05:01;;;;;;;;;;;;;;;;;;6288090;28;20295;-81
2023/07/20 09:08:03;;;;;;;3.95;3.00;;;;;;;;;;6285160;28;19934;-79
2023/07/20 09:11:05;;;;;;;4.47;3.30;;;;;;;;;;6300548;28;20494;-80
2023/07/20 09:14:08;;;;;;;4.68;2.60;;;;;;;;;;6282852;28;20386;-81
2023/07/20 09:17:14;;;;;;;6.22;2.92;;;;;;;;;;6301328;28;20047;-82
2023/07/20 09:20:17;;;;;;;3.88;2.85;;;;;;;;;;6287133;28;20047;-80
2023/07/20 09:23:31;;;;;;;3.95;2.90;;;;;;;;;;6301327;28;20048;-80
2023/07/20 09:26:41;;;;;;;3.88;2.88;;;;;;;;;;6295838;28;20036;-80
2023/07/20 09:29:50;;;;;;;5.00;2.97;;;;;;;;;;6275829;28;20051;-80
2023/07/20 09:32:52;;;;;;;3.90;3.00;;;;;;;;;;6302177;28;20524;-81
2023/07/20 09:36:02;;;;;;;4.22;3.10;;;;;;;;;;6300032;28;20052;-81
2023/07/20 09:39:24;;;;;;;3.20;2.92;;;;;;;;;;6297472;28;20052;-81
2023/07/20 09:42:28;;;;;;;3.20;3.00;;;;;;;;;;6286174;28;20060;-81
2023/07/20 09:45:33;;;;;;;3.53;3.00;;;;;;;;;;6300561;28;20048;-80
2023/07/20 09:48:38;;;;;;;3.72;2.33;;;;;;;;;;6266326;28;20075;-81
2023/07/20 09:52:02;;;;;;;3.08;2.65;;;;;;;;;;6285930;28;20048;-81
2023/07/20 09:55:05;;;;;;;3.17;2.80;;;;;;;;;;6296071;28;20702;-80
2023/07/20 09:58:09;;;;;;;2.63;2.28;;;;;;;;;;6288697;28;20051;-80
2023/07/20 10:01:14;;;;;;;2.47;1.88;;;;;;;;;;6271862;28;20066;-80
2023/07/20 10:04:18;;;;;;;3.25;2.17;;;;;;;;;;6285514;28;20533;-81
2023/07/20 10:07:23;;;;;;;2.83;2.60;;;;;;;;;;6289820;28;20202;-81
2023/07/20 10:10:26;;;;;;;3.33;2.63;;;;;;;;;;6293058;28;20154;-81
2023/07/20 10:13:30;;;;;;;2.75;2.28;;;;;;;;;;6310590;28;20086;-82
2023/07/20 10:16:36;;;;;;;2.03;1.83;;;;;;;;;;6305913;28;20117;-81
2023/07/20 10:19:50;;;;;;;1.95;1.73;;;;;;;;;;6308385;28;20066;-81
2023/07/20 10:22:56;;;;;;;2.90;1.90;;;;;;;;;;6288784;28;20052;-80
2023/07/20 10:25:59;;;;;;;2.33;2.00;;;;;;;;;;6280284;28;20418;-81
2023/07/20 10:29:03;;;;;;;2.78;2.10;;;;;;;;;;6285033;28;20067;-79
2023/07/20 10:32:05;;;;;;;2.45;1.80;;;;;;;;;;6294283;28;20048;-79
2023/07/20 10:35:16;;;;;;;2.88;2.33;;;;;;;;;;6288681;28;20173;-79
2023/07/20 10:38:17;;;;;;;3.38;2.50;;;;;;;;;;6282561;28;20059;-81
2023/07/20 10:41:21;;;;;;;3.57;2.13;;;;;;;;;;6279513;28;20040;-81
2023/07/20 10:44:23;;;;;;;1.95;1.85;;;;;;;;;;6292466;28;20044;-82
2023/07/20 10:47:25;;;;;;;2.55;2.05;;;;;;;;;;6303264;28;20044;-80
2023/07/20 10:50:29;;;;;;;3.13;2.22;;;;;;;;;;6301894;28;20506;-80
2023/07/20 10:53:30;;;;;;;2.40;2.00;;;;;;;;;;6278607;28;20470;-79
2023/07/20 10:56:32;;;;;;;8.67;4.57;;;;;;;;;;6265616;28;20123;-80
2023/07/20 10:59:34;;;;;;;2.70;2.05;;;;;;;;;;6303414;28;20053;-83
2023/07/20 11:02:49;;;;;;;2.35;2.10;;;;;;;;;;6285400;28;20468;-83
2023/07/20 11:05:54;;;;;;;2.75;2.20;;;;;;;;;;6310718;28;20048;-85
2023/07/20 11:09:03;;;;;;;2.53;2.05;;;;;;;;;;6310477;28;20056;-83
2023/07/20 11:12:13;;;;;;;2.05;1.85;;;;;;;;;;6306428;28;20040;-83
2023/07/20 11:15:15;;;;;;;1.92;1.73;;;;;;;;;;6311667;28;20078;-83
2023/07/20 11:18:17;;;;;;;3.33;2.17;;;;;;;;;;6309412;28;20071;-83
2023/07/20 11:21:20;;;;;;;2.50;2.28;;;;;;;;;;6314160;28;20078;-82
2023/07/20 11:24:23;;;;;;;3.70;1.90;;;;;;;;;;6312851;28;20047;-83
2023/07/20 11:27:25;;;;;;;;;;;;;;;;;;6307137;28;20046;-83
2023/07/20 11:30:32;;;;;;;4.05;1.70;;;;;;;;;;6289887;28;19924;-83
2023/07/20 11:33:34;;;;;;;3.15;2.25;;;;;;;;;;6313413;28;20112;-82
2023/07/20 11:36:36;;;;;;;2.83;2.23;;;;;;;;;;6307180;28;20036;-83
2023/07/20 11:39:41;;;;;;;2.47;2.28;;;;;;;;;;6302753;28;20512;-81
2023/07/20 11:42:43;;;;;;;2.40;2.20;;;;;;;;;;6305073;28;20091;-82
2023/07/20 11:45:48;;;;;;;2.55;2.25;;;;;;;;;;6309234;28;20512;-83
2023/07/20 11:48:56;;;;;;;3.85;2.33;;;;;;;;;;6291993;28;20041;-84
2023/07/20 11:51:58;;;;;;;2.63;2.15;;;;;;;;;;6293881;28;20059;-82
2023/07/20 11:55:01;;;;;;;2.83;2.47;;;;;;;;;;6321455;28;20051;-83
2023/07/20 11:58:07;;;;;;;3.15;2.38;;;;;;;;;;6317457;28;20040;-82
2023/07/20 12:01:09;;;;;;;2.38;2.15;;;;;;;;;;6311280;28;20048;-81
2023/07/20 12:04:10;;;;;;;2.75;2.25;;;;;;;;;;6289499;28;20040;-82
2023/07/20 12:07:12;;;;;;;2.40;2.20;;;;;;;;;;6309328;28;20062;-82
2023/07/20 12:10:14;;;;;;;3.08;2.45;;;;;;;;;;6284770;28;20490;-81
2023/07/20 12:13:16;;;;;;;2.93;2.37;;;;;;;;;;6287507;28;20051;-82
2023/07/20 12:16:19;;;;;;;2.38;2.17;;;;;;;;;;6287143;28;20449;-82
2023/07/20 12:19:25;;;;;;;3.92;2.60;;;;;;;;;;6306656;28;20088;-82
2023/07/20 12:22:27;;;;;;;3.20;2.58;;;;;;;;;;6287382;28;20052;-82
2023/07/20 12:25:45;;;;;;;2.90;2.38;;;;;;;;;;6297698;28;20094;-83
2023/07/20 12:28:47;;;;;;;2.58;2.38;;;;;;;;;;6286239;28;20040;-82
2023/07/20 12:31:50;;;;;;;2.88;2.60;;;;;;;;;;6305155;28;20048;-82
2023/07/20 12:34:51;;;;;;;4.18;2.30;;;;;;;;;;6294535;28;20040;-83
2023/07/20 12:37:53;;;;;;;3.90;2.30;;;;;;;;;;6300011;28;20052;-82
2023/07/20 12:40:55;;;;;;;2.65;1.95;;;;;;;;;;6278898;28;20414;-84
2023/07/20 12:43:57;;;;;;;2.90;2.20;;;;;;;;;;6290544;28;20044;-81
2023/07/20 12:46:59;;;;;;;2.65;2.35;;;;;;;;;;6288818;28;20051;-83
2023/07/20 12:50:01;;;;;;;2.55;1.88;;;;;;;;;;6304684;28;20070;-82
2023/07/20 12:53:03;;;;;;;3.30;2.10;;;;;;;;;;6305545;28;20498;-81
2023/07/20 12:56:05;;;;;;;;;;;;;;;;;;6269337;28;20062;-82
2023/07/20 12:59:10;;;;;;;1.80;1.60;;;;;;;;;;6289122;28;20594;-83
2023/07/20 13:02:12;;;;;;;4.37;1.60;;;;;;;;;;6309112;28;20055;-82
2023/07/20 13:05:13;;;;;;;1.67;1.58;;;;;;;;;;6289208;28;20040;-80
2023/07/20 13:08:15;;;;;;;2.05;1.50;;;;;;;;;;6303594;28;20051;-80
2023/07/20 13:11:20;;;;;;;2.75;2.00;;;;;;;;;;6297712;28;20469;-81
2023/07/20 13:14:22;;;;;;;2.17;1.90;;;;;;;;;;6302116;28;20048;-80
2023/07/20 13:17:23;;;;;;;2.13;1.92;;;;;;;;;;6297289;28;20036;-80
2023/07/20 13:20:26;;;;;;;1.90;1.70;;;;;;;;;;6275982;28;20052;-76
2023/07/20 13:23:27;;;;;;;;;;;;;;;;;;6271945;28;20418;-78
2023/07/20 13:26:29;;;;;;;3.80;1.70;;;;;;;;;;6297615;28;19928;-77
2023/07/20 13:29:32;;;;;;;1.45;1.30;;;;;;;;;;6298738;28;20187;-77
2023/07/20 13:32:34;;;;;;;1.67;1.52;;;;;;;;;;6303755;28;20086;-76
2023/07/20 13:35:36;;;;;;;1.90;1.77;;;;;;;;;;6300204;28;20067;-77
2023/07/20 13:38:40;;;;;;;1.73;1.50;;;;;;;;;;6294393;28;20048;-78
2023/07/20 13:41:42;;;;;;;2.17;1.50;;;;;;;;;;6302621;28;20105;-79
2023/07/20 13:44:43;;;;;;;1.45;1.10;;;;;;;;;;6307774;28;20040;-80
2023/07/20 13:47:45;;;;;;;2.03;1.10;;;;;;;;;;6289150;28;20044;-80
2023/07/20 13:50:53;;;;;;;1.30;1.17;;;;;;;;;;6289607;28;20040;-79
2023/07/20 13:53:57;;;;;;;1.60;1.50;;;;;;;;;;6282250;28;20044;-79
2023/07/20 13:56:59;;;;;;;1.55;1.45;;;;;;;;;;6282485;28;20052;-77
2023/07/20 14:00:03;;;;;;;1.98;1.48;;;;;;;;;;6305031;28;20049;-76
2023/07/20 14:03:12;;;;;;;3.33;1.23;;;;;;;;;;6287097;28;20413;-79
2023/07/20 14:06:17;;;;;;;1.95;1.10;;;;;;;;;;6309981;28;20044;-81
2023/07/20 14:09:22;;;;;;;1.65;1.30;;;;;;;;;;6265889;28;20044;-80
2023/07/20 14:12:24;;;;;;;1.40;1.30;;;;;;;;;;6288550;28;20426;-78
2023/07/20 14:15:26;;;;;;;1.10;1.00;;;;;;;;;;6305226;28;20044;-78
2023/07/20 14:18:28;;;;;;;2.08;1.30;;;;;;;;;;6302467;28;20045;-80
2023/07/20 14:21:31;;;;;;;1.95;1.45;;;;;;;;;;6277370;28;20526;-81
2023/07/20 14:24:32;;;;;;;;;;;;;;;;;;6283867;28;20048;-81
2023/07/20 14:27:34;;;;;;;1.50;1.40;;;;;;;;;;6289319;28;19924;-79
2023/07/20 14:30:39;;;;;;;1.90;1.70;;;;;;;;;;6300559;28;20452;-80
2023/07/20 14:33:40;;;;;;;1.55;1.45;;;;;;;;;;6265421;28;20040;-81
2023/07/20 14:36:42;;;;;;;1.63;1.53;;;;;;;;;;6280158;28;20048;-79
2023/07/20 14:39:44;;;;;;;1.87;1.70;;;;;;;;;;6298390;28;20481;-81
2023/07/20 14:42:46;;;;;;;1.60;1.50;;;;;;;;;;6300795;28;20451;-80
2023/07/20 14:45:48;;;;;;;1.73;1.63;;;;;;;;;;6302155;28;20052;-80
2023/07/20 14:48:51;;;;;;;1.58;1.48;;;;;;;;;;6288406;28;20052;-81
2023/07/20 14:51:53;;;;;;;1.50;1.40;;;;;;;;;;6288757;28;20044;-81
2023/07/20 14:54:59;;;;;;;1.77;1.58;;;;;;;;;;6300331;28;20040;-80
2023/07/20 14:58:01;;;;;;;2.17;1.37;;;;;;;;;;6288610;28;20051;-81
2023/07/20 15:01:03;;;;;;;1.40;1.30;;;;;;;;;;6285206;28;20044;-81
2023/07/20 15:04:06;;;;;;;4.15;1.70;;;;;;;;;;6305793;28;20592;-81
2023/07/20 15:07:08;;;;;;;1.70;1.60;;;;;;;;;;6305939;28;20052;-80
2023/07/20 15:10:09;;;;;;;1.75;1.38;;;;;;;;;;6266158;28;20110;-82
2023/07/20 15:13:11;;;;;;;1.67;1.58;;;;;;;;;;6304041;28;20041;-79
2023/07/20 15:16:13;;;;;;;1.97;1.60;;;;;;;;;;6272699;28;20470;-79
2023/07/20 15:19:15;;;;;;;2.00;1.70;;;;;;;;;;6318615;28;20058;-79
2023/07/20 15:22:17;;;;;;;1.92;1.48;;;;;;;;;;6293356;28;20047;-80
2023/07/20 15:25:20;;;;;;;1.60;1.50;;;;;;;;;;6284218;28;20424;-81
2023/07/20 15:28:22;;;;;;;1.50;1.40;;;;;;;;;;6275431;28;20055;-79
2023/07/20 15:31:24;;;;;;;1.50;1.37;;;;;;;;;;6293761;28;20137;-81
2023/07/20 15:34:46;;;;;;;1.52;1.40;;;;;;;;;;6267768;28;20131;-79
2023/07/20 15:37:48;;;;;;;2.67;1.52;;;;;;;;;;6297497;28;20040;-83
2023/07/20 15:40:49;;;;;;;1.40;1.30;;;;;;;;;;6296935;28;20573;-82
2023/07/20 15:43:52;;;;;;;1.40;1.20;;;;;;;;;;6308085;28;20047;-81
2023/07/20 15:46:57;;;;;;;2.47;1.25;;;;;;;;;;6307904;28;20051;-81
2023/07/20 15:49:59;;;;;;;1.42;1.30;;;;;;;;;;6292680;28;20047;-80
2023/07/20 15:53:02;;;;;;;1.77;1.20;;;;;;;;;;6271199;28;20028;-80
2023/07/20 15:56:04;;;;;;;2.58;1.38;;;;;;;;;;6304731;28;20040;-79
2023/07/20 15:59:12;;;;;;;1.92;1.20;;;;;;;;;;6294597;28;20109;-79
2023/07/20 16:02:14;;;;;;;1.48;1.38;;;;;;;;;;6292857;28;20067;-80
2023/07/20 16:05:16;;;;;;;3.00;1.50;;;;;;;;;;6304883;28;20048;-81
2023/07/20 16:08:18;;;;;;;1.83;1.20;;;;;;;;;;6300623;28;20121;-79
2023/07/20 16:11:23;;;;;;;2.30;1.33;;;;;;;;;;6302609;28;20044;-80
2023/07/20 16:14:27;;;;;;;1.15;1.10;;;;;;;;;;6293841;28;21096;-79
2023/07/20 16:17:29;;;;;;;1.85;1.13;;;;;;;;;;6305412;28;20060;-79
2023/07/20 16:20:31;;;;;;;1.40;1.13;;;;;;;;;;6285271;28;20056;-81
2023/07/20 16:23:33;;;;;;;1.58;0.98;;;;;;;;;;6280359;28;20051;-83
2023/07/20 16:26:35;;;;;;;1.95;1.30;;;;;;;;;;6301848;28;20036;-83
2023/07/20 16:29:36;;;;;;;1.92;1.40;;;;;;;;;;6306238;28;20553;-84
2023/07/20 16:32:43;;;;;;;1.50;1.38;;;;;;;;;;6307704;28;20565;-83
2023/07/20 16:35:45;;;;;;;2.22;1.10;;;;;;;;;;6297312;28;20044;-83
2023/07/20 16:38:49;;;;;;;1.52;1.15;;;;;;;;;;6297204;28;20510;-83
2023/07/20 16:42:12;;;;;;;1.92;0.93;;;;;;;;;;6314298;28;20218;-80
2023/07/20 16:45:14;;;;;;;1.40;0.95;;;;;;;;;;6311944;28;20051;-82
2023/07/20 16:48:16;;;;;;;1.17;1.05;;;;;;;;;;6292472;28;20048;-83
2023/07/20 16:51:20;;;;;;;1.15;1.00;;;;;;;;;;6289849;28;20052;-84
2023/07/20 16:54:22;;;;;;;;;;;;;;;;;;6287669;28;20044;-82
2023/07/20 16:57:24;;;;;;;1.33;1.00;;;;;;;;;;6290942;28;19935;-81
2023/07/20 17:00:26;;;;;;;1.67;1.05;;;;;;;;;;6308320;28;20044;-82
2023/07/20 17:03:28;;;;;;;1.40;1.10;;;;;;;;;;6277319;28;20060;-83
2023/07/20 17:06:30;;;;;;;1.73;1.00;;;;;;;;;;6303170;28;20040;-84
2023/07/20 17:09:34;;;;;;;1.30;1.07;;;;;;;;;;6289917;28;20068;-82
2023/07/20 17:12:39;;;;;;;2.00;1.27;;;;;;;;;;6290459;28;20055;-81
2023/07/20 17:15:41;;;;;;;1.40;1.02;;;;;;;;;;6288649;28;20056;-82
2023/07/20 17:18:43;;;;;;;1.77;1.23;;;;;;;;;;6270568;28;20133;-82
2023/07/20 17:21:45;;;;;;;1.50;1.08;;;;;;;;;;6285059;28;20044;-81
2023/07/20 17:24:46;;;;;;;1.33;1.23;;;;;;;;;;6281533;28;20040;-82
2023/07/20 17:27:51;;;;;;;1.65;1.02;;;;;;;;;;6301964;28;20052;-81
2023/07/20 17:31:01;;;;;;;1.60;1.50;;;;;;;;;;6307215;28;20078;-82
2023/07/20 17:34:03;;;;;;;1.98;1.23;;;;;;;;;;6273321;28;20090;-83
2023/07/20 17:37:05;;;;;;;2.45;1.60;;;;;;;;;;6311797;28;20043;-80
2023/07/20 17:40:10;;;;;;;1.55;1.20;;;;;;;;;;6310388;28;20433;-80
2023/07/20 17:43:15;;;;;;;1.35;1.25;;;;;;;;;;6315995;28;20047;-80
2023/07/20 17:46:16;;;;;;;2.70;1.70;;;;;;;;;;6310902;28;20047;-80
2023/07/20 17:49:22;;;;;;;1.70;1.60;;;;;;;;;;6313984;28;20094;-80
2023/07/20 17:52:24;;;;;;;1.65;1.55;;;;;;;;;;6293773;28;20040;-80
2023/07/20 17:55:27;;;;;;;1.83;1.73;;;;;;;;;;6311366;28;20093;-79
2023/07/20 17:58:28;;;;;;;1.90;1.55;;;;;;;;;;6282815;28;20051;-81
2023/07/20 18:01:30;;;;;;;1.88;1.67;;;;;;;;;;6320121;28;20052;-81
2023/07/20 18:04:32;;;;;;;1.80;1.70;;;;;;;;;;6314613;28;20133;-82
2023/07/20 18:07:34;;;;;;;1.88;1.73;;;;;;;;;;6308014;28;20048;-81
2023/07/20 18:10:35;;;;;;;1.60;1.50;;;;;;;;;;6300068;28;20055;-81
2023/07/20 18:13:37;;;;;;;2.13;1.52;;;;;;;;;;6312657;28;20063;-82
2023/07/20 18:16:39;;;;;;;2.03;1.50;;;;;;;;;;6310190;28;20060;-82
2023/07/20 18:19:41;;;;;;;2.40;1.60;;;;;;;;;;6312517;28;20044;-82